createdAt,value
2019-03-05T00:00:33.665Z,83.98
2019-03-05T00:01:39.699Z,84.44
2019-03-05T00:02:45.287Z,84.59
2019-03-05T00:03:51.110Z,84.07
2019-03-05T00:04:56.742Z,84.09
2019-03-05T00:06:02.384Z,84.15
2019-03-05T00:07:08.231Z,84.40
2019-03-05T00:08:13.787Z,84.79
2019-03-05T00:09:19.076Z,85.11
2019-03-05T00:10:24.617Z,85.36
2019-03-05T00:11:30.452Z,84.67
2019-03-05T00:12:36.301Z,84.61
2019-03-05T00:13:41.823Z,84.50
2019-03-05T00:14:47.756Z,84.20
2019-03-05T00:15:53.401Z,84.27
2019-03-05T00:16:59.231Z,84.31
2019-03-05T00:18:04.377Z,83.92
2019-03-05T00:19:10.338Z,83.88
2019-03-05T00:20:16.165Z,83.89
2019-03-05T00:21:22.007Z,84.14
2019-03-05T00:22:27.866Z,83.93
2019-03-05T00:23:44.713Z,84.00
2019-03-05T00:24:57.393Z,83.81
2019-03-05T00:26:03.273Z,83.76
2019-03-05T00:27:08.818Z,83.95
2019-03-05T00:28:15.744Z,84.54
2019-03-05T00:29:24.460Z,84.18
2019-03-05T00:30:31.569Z,84.23
2019-03-05T00:31:39.002Z,84.63
2019-03-05T00:32:44.204Z,84.61
2019-03-05T00:33:50.296Z,84.50
2019-03-05T00:34:59.961Z,84.21
2019-03-05T00:36:11.536Z,84.85
2019-03-05T00:37:21.481Z,84.70
2019-03-05T00:38:30.145Z,84.47
2019-03-05T00:39:52.146Z,84.14
2019-03-05T00:42:38.951Z,84.42
2019-03-05T00:43:54.748Z,84.40
2019-03-05T00:45:17.605Z,84.53
2019-03-05T00:46:23.637Z,84.45
2019-03-05T00:47:44.408Z,84.29
2019-03-05T00:49:00.861Z,84.20
2019-03-05T00:50:15.723Z,84.46
2019-03-05T00:51:26.294Z,84.89
2019-03-05T00:52:37.884Z,84.56
2019-03-05T00:53:46.563Z,84.52
2019-03-05T00:55:07.293Z,84.28
2019-03-05T00:56:18.770Z,84.24
2019-03-05T00:57:28.425Z,84.55
2019-03-05T00:58:42.418Z,84.56
2019-03-05T00:59:54.336Z,84.48
2019-03-05T01:01:03.106Z,84.21
2019-03-05T01:02:27.754Z,84.46
2019-03-05T01:03:34.743Z,84.68
2019-03-05T01:04:41.185Z,85.00
2019-03-05T01:05:47.142Z,84.58
2019-03-05T01:06:52.607Z,84.39
2019-03-05T01:07:57.788Z,83.77
2019-03-05T01:09:03.310Z,84.00
2019-03-05T01:10:08.289Z,83.81
2019-03-05T01:11:13.914Z,83.21
2019-03-05T01:12:19.207Z,83.35
2019-03-05T01:13:24.394Z,83.49
2019-03-05T01:14:29.745Z,82.96
2019-03-05T01:15:35.266Z,82.34
2019-03-05T01:16:40.556Z,83.35
2019-03-05T01:17:46.087Z,83.54
2019-03-05T01:18:51.909Z,83.24
2019-03-05T01:19:57.797Z,82.99
2019-03-05T01:21:03.001Z,82.75
2019-03-05T01:22:08.284Z,82.47
2019-03-05T01:23:14.134Z,82.79
2019-03-05T01:24:19.293Z,82.93
2019-03-05T01:25:29.943Z,82.93
2019-03-05T01:26:35.528Z,83.42
2019-03-05T01:27:41.376Z,82.77
2019-03-05T01:28:46.891Z,82.00
2019-03-05T01:29:52.423Z,82.02
2019-03-05T01:31:08.888Z,82.33
2019-03-05T01:33:49.511Z,82.81
2019-03-05T01:34:56.733Z,82.25
2019-03-05T01:36:04.117Z,82.32
2019-03-05T01:37:09.781Z,82.33
2019-03-05T01:38:15.661Z,81.85
2019-03-05T01:39:23.813Z,82.09
2019-03-05T01:40:29.123Z,81.95
2019-03-05T01:41:34.996Z,82.40
2019-03-05T01:42:40.563Z,81.94
2019-03-05T01:43:46.388Z,82.12
2019-03-05T01:44:52.305Z,82.50
2019-03-05T01:45:58.208Z,82.50
2019-03-05T01:47:03.702Z,82.46
2019-03-05T01:48:09.554Z,82.72
2019-03-05T01:49:15.443Z,82.73
2019-03-05T01:50:21.339Z,82.50
2019-03-05T01:51:27.253Z,82.05
2019-03-05T01:52:33.087Z,82.31
2019-03-05T01:53:38.901Z,82.78
2019-03-05T01:54:44.723Z,83.03
2019-03-05T01:55:50.645Z,83.14
2019-03-05T01:56:56.482Z,82.55
2019-03-05T01:58:02.365Z,82.82
2019-03-05T01:59:08.220Z,82.80
2019-03-05T02:00:13.182Z,82.90
2019-03-05T02:01:18.994Z,82.89
2019-03-05T02:02:24.837Z,82.59
2019-03-05T02:03:29.968Z,82.61
2019-03-05T02:04:35.483Z,83.22
2019-03-05T02:05:41.387Z,83.45
2019-03-05T02:06:47.064Z,83.74
2019-03-05T02:07:52.556Z,83.53
2019-03-05T02:08:58.038Z,83.07
2019-03-05T02:10:02.997Z,82.87
2019-03-05T02:11:08.660Z,83.28
2019-03-05T02:12:14.260Z,82.93
2019-03-05T02:13:19.756Z,82.91
2019-03-05T02:14:25.295Z,83.16
2019-03-05T02:15:31.175Z,84.06
2019-03-05T02:16:36.997Z,84.26
2019-03-05T02:17:42.913Z,84.63
2019-03-05T02:18:48.420Z,84.86
2019-03-05T02:19:54.289Z,84.73
2019-03-05T02:21:00.159Z,84.25
2019-03-05T02:22:15.138Z,84.33
2019-03-05T02:23:20.269Z,84.48
2019-03-05T02:24:47.109Z,84.33
2019-03-05T02:25:57.986Z,84.47
2019-03-05T02:27:09.660Z,84.71
2019-03-05T02:28:30.602Z,84.70
2019-03-05T02:29:38.197Z,84.79
2019-03-05T02:32:41.066Z,85.66
2019-03-05T02:34:01.147Z,85.85
2019-03-05T02:35:07.829Z,85.69
2019-03-05T02:36:15.374Z,86.05
2019-03-05T02:37:21.247Z,86.63
2019-03-05T02:40:16.338Z,86.41
2019-03-05T02:41:29.549Z,86.63
2019-03-05T02:42:47.222Z,86.45
2019-03-05T02:44:01.877Z,86.33
2019-03-05T02:45:31.735Z,86.11
2019-03-05T02:46:42.098Z,86.76
2019-03-05T02:49:37.959Z,87.11
2019-03-05T02:50:46.943Z,86.91
2019-03-05T02:51:59.967Z,86.96
2019-03-05T02:53:08.574Z,86.85
2019-03-05T02:57:44.465Z,86.63
2019-03-05T02:58:49.110Z,86.39
2019-03-05T02:59:54.950Z,86.50
2019-03-05T03:01:12.364Z,85.78
2019-03-05T03:02:19.849Z,85.31
2019-03-05T03:03:28.385Z,84.87
2019-03-05T03:04:35.460Z,85.21
2019-03-05T03:05:41.580Z,85.52
2019-03-05T03:06:47.110Z,85.68
2019-03-05T03:07:52.984Z,85.40
2019-03-05T03:09:20.721Z,85.29
2019-03-05T03:10:25.919Z,85.34
2019-03-05T03:11:31.784Z,86.03
2019-03-05T03:12:37.281Z,85.73
2019-03-05T03:13:43.205Z,85.31
2019-03-05T03:14:48.400Z,85.81
2019-03-05T03:15:54.265Z,85.76
2019-03-05T03:17:00.105Z,85.53
2019-03-05T03:18:05.989Z,86.04
2019-03-05T03:19:11.890Z,86.35
2019-03-05T03:20:17.050Z,86.60
2019-03-05T03:21:23.082Z,86.13
2019-03-05T03:22:28.973Z,85.93
2019-03-05T03:23:34.845Z,86.13
2019-03-05T03:24:40.745Z,86.46
2019-03-05T03:25:46.566Z,85.80
2019-03-05T03:26:52.392Z,85.71
2019-03-05T03:27:58.277Z,85.77
2019-03-05T03:29:03.775Z,85.61
2019-03-05T03:30:09.717Z,85.79
2019-03-05T03:31:15.561Z,85.89
2019-03-05T03:32:21.413Z,85.61
2019-03-05T03:33:27.318Z,85.83
2019-03-05T03:34:33.229Z,85.65
2019-03-05T03:35:39.087Z,85.52
2019-03-05T03:36:44.926Z,85.92
2019-03-05T03:37:50.421Z,85.89
2019-03-05T03:38:56.309Z,86.06
2019-03-05T03:40:02.217Z,85.81
2019-03-05T03:41:08.124Z,86.09
2019-03-05T03:42:13.968Z,85.80
2019-03-05T03:43:19.448Z,85.92
2019-03-05T03:44:25.316Z,86.01
2019-03-05T03:45:31.218Z,86.03
2019-03-05T03:46:37.067Z,86.60
2019-03-05T03:47:42.947Z,86.95
2019-03-05T03:48:48.826Z,87.09
2019-03-05T03:49:54.751Z,86.58
2019-03-05T03:51:00.597Z,86.32
2019-03-05T03:52:06.468Z,86.21
2019-03-05T03:53:12.339Z,85.79
2019-03-05T03:54:18.191Z,85.81
2019-03-05T03:55:23.403Z,85.71
2019-03-05T03:56:29.314Z,86.56
2019-03-05T03:57:34.987Z,86.46
2019-03-05T03:58:40.561Z,86.10
2019-03-05T03:59:46.113Z,86.31
2019-03-05T04:00:51.961Z,86.83
2019-03-05T04:01:57.450Z,87.41
2019-03-05T04:03:03.334Z,86.87
2019-03-05T04:04:09.178Z,86.37
2019-03-05T04:05:14.676Z,86.82
2019-03-05T04:06:19.845Z,86.80
2019-03-05T04:07:25.680Z,86.50
2019-03-05T04:08:31.581Z,86.78
2019-03-05T04:09:37.969Z,86.75
2019-03-05T04:10:43.859Z,86.44
2019-03-05T04:11:49.722Z,86.96
2019-03-05T04:12:55.673Z,86.65
2019-03-05T04:14:01.547Z,86.11
2019-03-05T04:15:06.750Z,85.81
2019-03-05T04:16:12.287Z,85.65
2019-03-05T04:17:18.131Z,85.40
2019-03-05T04:18:23.956Z,85.21
2019-03-05T04:19:29.594Z,84.78
2019-03-05T04:20:35.370Z,85.32
2019-03-05T04:21:41.130Z,85.14
2019-03-05T04:22:47.028Z,84.96
2019-03-05T04:23:52.913Z,84.43
2019-03-05T04:24:59.046Z,84.87
2019-03-05T04:26:04.910Z,84.99
2019-03-05T04:27:10.749Z,84.79
2019-03-05T04:28:16.575Z,84.24
2019-03-05T04:29:22.421Z,84.47
2019-03-05T04:30:28.360Z,84.20
2019-03-05T04:31:34.002Z,84.01
2019-03-05T04:32:39.871Z,84.17
2019-03-05T04:33:45.728Z,83.78
2019-03-05T04:34:51.596Z,83.28
2019-03-05T04:35:57.497Z,83.28
2019-03-05T04:37:03.348Z,82.98
2019-03-05T04:38:09.174Z,83.03
2019-03-05T04:39:15.015Z,83.08
2019-03-05T04:40:20.915Z,82.85
2019-03-05T04:41:26.767Z,82.77
2019-03-05T04:42:33.535Z,83.07
2019-03-05T04:43:39.402Z,83.17
2019-03-05T04:44:44.985Z,82.72
2019-03-05T04:45:51.436Z,82.60
2019-03-05T04:46:57.259Z,83.07
2019-03-05T04:48:02.770Z,82.85
2019-03-05T04:49:12.346Z,82.22
2019-03-05T04:50:18.811Z,82.49
2019-03-05T04:51:24.489Z,82.44
2019-03-05T04:52:30.381Z,81.70
2019-03-05T04:53:36.236Z,82.51
2019-03-05T04:54:42.123Z,81.99
2019-03-05T04:55:48.021Z,81.61
2019-03-05T04:56:53.887Z,82.23
2019-03-05T04:57:59.754Z,82.31
2019-03-05T04:59:05.619Z,82.30
2019-03-05T05:00:10.755Z,82.14
2019-03-05T05:01:16.719Z,82.43
2019-03-05T05:02:22.567Z,82.99
2019-03-05T05:03:28.040Z,82.99
2019-03-05T05:04:33.883Z,83.93
2019-03-05T05:05:39.773Z,83.88
2019-03-05T05:06:45.632Z,84.40
2019-03-05T05:07:51.482Z,85.31
2019-03-05T05:08:57.365Z,84.88
2019-03-05T05:10:03.244Z,84.67
2019-03-05T05:11:09.160Z,84.92
2019-03-05T05:12:15.023Z,85.34
2019-03-05T05:13:20.867Z,85.84
2019-03-05T05:14:26.802Z,85.87
2019-03-05T05:15:33.350Z,86.00
2019-03-05T05:16:39.263Z,86.03
2019-03-05T05:17:45.161Z,85.83
2019-03-05T05:18:51.845Z,86.09
2019-03-05T05:19:57.720Z,86.07
2019-03-05T05:21:03.595Z,85.92
2019-03-05T05:22:09.492Z,85.80
2019-03-05T05:23:15.437Z,85.31
2019-03-05T05:24:20.941Z,84.87
2019-03-05T05:25:26.078Z,85.19
2019-03-05T05:26:31.935Z,85.07
2019-03-05T05:27:37.804Z,84.85
2019-03-05T05:28:44.525Z,85.11
2019-03-05T05:29:50.349Z,85.19
2019-03-05T05:30:55.904Z,84.94
2019-03-05T05:32:01.738Z,84.76
2019-03-05T05:33:06.965Z,85.09
2019-03-05T05:34:12.835Z,84.94
2019-03-05T05:35:18.752Z,85.10
2019-03-05T05:36:24.665Z,85.35
2019-03-05T05:37:30.491Z,85.59
2019-03-05T05:38:36.324Z,85.99
2019-03-05T05:39:53.299Z,85.74
2019-03-05T05:40:59.237Z,85.67
2019-03-05T05:42:04.804Z,86.16
2019-03-05T05:43:10.729Z,86.27
2019-03-05T05:44:16.646Z,86.47
2019-03-05T05:45:23.087Z,86.18
2019-03-05T05:46:28.968Z,85.61
2019-03-05T05:47:34.867Z,85.17
2019-03-05T05:48:40.732Z,84.73
2019-03-05T05:49:46.577Z,85.30
2019-03-05T05:50:52.452Z,85.43
2019-03-05T05:51:58.336Z,85.44
2019-03-05T05:53:03.839Z,85.48
2019-03-05T05:54:09.724Z,86.22
2019-03-05T05:55:15.214Z,86.24
2019-03-05T05:56:21.137Z,86.18
2019-03-05T05:57:27.004Z,87.16
2019-03-05T05:58:32.877Z,87.73
2019-03-05T05:59:38.721Z,88.42
2019-03-05T06:00:43.978Z,89.53
2019-03-05T06:01:49.831Z,90.62
2019-03-05T06:02:55.691Z,91.66
2019-03-05T06:04:01.527Z,92.58
2019-03-05T06:05:06.732Z,92.43
2019-03-05T06:06:12.613Z,92.13
2019-03-05T06:07:20.957Z,92.44
2019-03-05T06:08:26.814Z,91.59
2019-03-05T06:09:32.676Z,91.45
2019-03-05T06:10:38.553Z,91.35
2019-03-05T06:11:44.458Z,91.25
2019-03-05T06:12:50.290Z,90.82
2019-03-05T06:13:56.123Z,90.64
2019-03-05T06:15:01.960Z,90.12
2019-03-05T06:16:08.689Z,90.16
2019-03-05T06:17:14.582Z,89.68
2019-03-05T06:18:20.416Z,89.78
2019-03-05T06:19:26.332Z,89.78
2019-03-05T06:20:32.258Z,89.56
2019-03-05T06:21:38.093Z,89.46
2019-03-05T06:22:44.005Z,88.98
2019-03-05T06:23:49.857Z,88.66
2019-03-05T06:24:55.712Z,88.15
2019-03-05T06:26:01.554Z,88.07
2019-03-05T06:27:07.441Z,87.92
2019-03-05T06:28:13.297Z,88.20
2019-03-05T06:29:19.150Z,88.60
2019-03-05T06:30:24.330Z,87.91
2019-03-05T06:31:30.194Z,87.01
2019-03-05T06:32:36.104Z,87.83
2019-03-05T06:33:41.977Z,87.86
2019-03-05T06:34:47.821Z,87.14
2019-03-05T06:35:53.656Z,86.66
2019-03-05T06:36:59.614Z,86.58
2019-03-05T06:38:04.800Z,85.80
2019-03-05T06:39:10.660Z,86.11
2019-03-05T06:40:16.672Z,86.00
2019-03-05T06:41:22.533Z,85.80
2019-03-05T06:42:28.817Z,86.04
2019-03-05T06:43:34.693Z,85.63
2019-03-05T06:44:40.544Z,85.27
2019-03-05T06:45:46.394Z,84.23
2019-03-05T06:46:51.909Z,84.22
2019-03-05T06:47:57.817Z,83.95
2019-03-05T06:49:03.681Z,84.04
2019-03-05T06:50:08.981Z,83.91
2019-03-05T06:51:14.976Z,82.95
2019-03-05T06:52:20.885Z,83.63
2019-03-05T06:53:26.808Z,83.62
2019-03-05T06:54:32.634Z,83.61
2019-03-05T06:55:38.546Z,83.69
2019-03-05T06:56:44.422Z,83.74
2019-03-05T06:57:49.953Z,83.84
2019-03-05T06:58:55.845Z,83.90
2019-03-05T07:00:01.745Z,83.59
2019-03-05T07:01:07.791Z,83.53
2019-03-05T07:02:13.289Z,83.96
2019-03-05T07:03:19.172Z,84.30
2019-03-05T07:04:25.070Z,84.32
2019-03-05T07:05:41.956Z,83.57
2019-03-05T07:06:47.827Z,83.62
2019-03-05T07:07:53.737Z,83.91
2019-03-05T07:09:00.479Z,83.48
2019-03-05T07:10:08.327Z,84.09
2019-03-05T07:11:20.226Z,84.02
2019-03-05T07:12:26.876Z,83.93
2019-03-05T07:13:32.011Z,84.35
2019-03-05T07:14:42.608Z,84.76
2019-03-05T07:16:04.411Z,84.57
2019-03-05T07:18:41.211Z,83.56
2019-03-05T07:19:57.846Z,84.41
2019-03-05T07:22:39.445Z,83.58
2019-03-05T07:25:20.923Z,83.48
2019-03-05T07:26:26.771Z,83.56
2019-03-05T07:27:31.950Z,83.48
2019-03-05T07:28:37.823Z,83.13
2019-03-05T07:29:43.722Z,82.58
2019-03-05T07:30:49.605Z,82.54
2019-03-05T07:31:55.459Z,82.42
2019-03-05T07:33:01.358Z,81.67
2019-03-05T07:34:06.649Z,81.81
2019-03-05T07:35:14.454Z,82.31
2019-03-05T07:36:20.020Z,81.89
2019-03-05T07:37:25.895Z,82.08
2019-03-05T07:38:31.431Z,81.91
2019-03-05T07:39:37.308Z,81.51
2019-03-05T07:40:43.149Z,81.11
2019-03-05T07:41:48.995Z,81.26
2019-03-05T07:42:55.130Z,81.15
2019-03-05T07:44:01.605Z,81.26
2019-03-05T07:45:06.737Z,80.94
2019-03-05T07:46:12.629Z,80.61
2019-03-05T07:47:18.562Z,80.62
2019-03-05T07:48:24.463Z,80.30
2019-03-05T07:49:30.340Z,80.25
2019-03-05T07:50:36.203Z,80.72
2019-03-05T07:51:42.051Z,80.53
2019-03-05T07:52:47.941Z,80.15
2019-03-05T07:53:53.820Z,80.40
2019-03-05T07:54:59.682Z,80.33
2019-03-05T07:56:04.873Z,80.83
2019-03-05T07:57:10.736Z,81.01
2019-03-05T07:58:16.247Z,80.38
2019-03-05T07:59:22.117Z,80.85
2019-03-05T08:00:28.003Z,80.43
2019-03-05T08:01:33.906Z,80.21
2019-03-05T08:02:39.821Z,80.38
2019-03-05T08:03:45.645Z,79.64
2019-03-05T08:04:51.514Z,80.44
2019-03-05T08:05:56.671Z,80.45
2019-03-05T08:07:02.559Z,80.90
2019-03-05T08:08:26.640Z,81.38
2019-03-05T08:09:31.495Z,80.59
2019-03-05T08:10:37.357Z,80.76
2019-03-05T08:11:43.197Z,80.68
2019-03-05T08:14:42.876Z,81.12
2019-03-05T08:16:06.872Z,81.17
2019-03-05T08:17:12.740Z,80.94
2019-03-05T08:18:18.596Z,81.27
2019-03-05T08:19:24.485Z,81.64
2019-03-05T08:20:29.652Z,80.88
2019-03-05T08:21:35.168Z,80.47
2019-03-05T08:22:40.411Z,80.83
2019-03-05T08:23:48.369Z,80.64
2019-03-05T08:24:51.857Z,80.75
2019-03-05T08:25:57.749Z,80.81
2019-03-05T08:27:03.615Z,81.16
2019-03-05T08:28:09.140Z,81.21
2019-03-05T08:29:15.058Z,81.58
2019-03-05T08:30:20.561Z,81.57
2019-03-05T08:31:26.433Z,81.17
2019-03-05T08:32:32.325Z,80.71
2019-03-05T08:33:38.175Z,80.91
2019-03-05T08:34:43.661Z,80.96
2019-03-05T08:35:49.535Z,81.14
2019-03-05T08:36:55.431Z,81.52
2019-03-05T08:38:01.329Z,81.60
2019-03-05T08:39:06.501Z,81.25
2019-03-05T08:40:11.690Z,81.41
2019-03-05T08:41:17.226Z,81.50
2019-03-05T08:42:23.067Z,81.49
2019-03-05T08:43:29.033Z,80.95
2019-03-05T08:44:34.906Z,81.45
2019-03-05T08:45:40.759Z,81.18
2019-03-05T08:46:46.627Z,80.86
2019-03-05T08:47:52.497Z,80.89
2019-03-05T08:48:58.330Z,81.06
2019-03-05T08:50:03.520Z,81.36
2019-03-05T08:51:09.377Z,81.85
2019-03-05T08:52:15.275Z,81.80
2019-03-05T08:53:21.144Z,82.15
2019-03-05T08:54:27.050Z,84.03
2019-03-05T08:55:32.877Z,85.40
2019-03-05T08:56:38.409Z,86.57
2019-03-05T08:57:44.245Z,86.22
2019-03-05T08:58:50.151Z,84.54
2019-03-05T08:59:56.000Z,84.70
2019-03-05T09:01:01.856Z,84.35
2019-03-05T09:02:06.983Z,83.91
2019-03-05T09:03:12.890Z,83.56
2019-03-05T09:04:18.712Z,83.07
2019-03-05T09:05:24.606Z,83.02
2019-03-05T09:06:30.466Z,83.45
2019-03-05T09:07:36.361Z,82.71
2019-03-05T09:08:42.243Z,81.23
2019-03-05T09:09:47.769Z,81.39
2019-03-05T09:10:52.947Z,81.88
2019-03-05T09:11:58.580Z,81.57
2019-03-05T09:13:03.792Z,81.16
2019-03-05T09:14:08.945Z,79.45
2019-03-05T09:15:14.858Z,79.85
2019-03-05T09:16:20.712Z,79.59
2019-03-05T09:17:26.583Z,77.94
2019-03-05T09:18:32.472Z,77.81
2019-03-05T09:19:38.326Z,77.48
2019-03-05T09:20:43.867Z,77.49
2019-03-05T09:21:49.744Z,77.71
2019-03-05T09:22:55.234Z,77.38
2019-03-05T09:24:01.145Z,76.54
2019-03-05T09:25:06.328Z,76.27
2019-03-05T09:26:12.202Z,76.25
2019-03-05T09:27:18.049Z,75.71
2019-03-05T09:28:23.232Z,75.43
2019-03-05T09:29:29.132Z,74.71
2019-03-05T09:30:34.996Z,74.17
2019-03-05T09:31:40.877Z,74.88
2019-03-05T09:32:46.405Z,74.62
2019-03-05T09:33:52.337Z,75.42
2019-03-05T09:34:58.199Z,75.97
2019-03-05T09:36:04.085Z,75.19
2019-03-05T09:37:09.940Z,76.56
2019-03-05T09:38:15.461Z,77.12
2019-03-05T09:39:21.295Z,78.48
2019-03-05T09:40:27.333Z,80.01
2019-03-05T09:41:33.212Z,81.41
2019-03-05T09:42:40.153Z,82.35
2019-03-05T09:43:44.628Z,81.07
2019-03-05T09:44:50.499Z,82.01
2019-03-05T09:45:56.376Z,82.79
2019-03-05T09:47:02.231Z,83.75
2019-03-05T09:48:07.731Z,82.78
2019-03-05T09:49:13.678Z,80.78
2019-03-05T09:50:18.845Z,81.78
2019-03-05T09:51:24.381Z,81.88
2019-03-05T09:52:30.232Z,81.71
2019-03-05T09:53:36.128Z,80.33
2019-03-05T09:54:42.013Z,79.71
2019-03-05T09:55:47.881Z,80.16
2019-03-05T09:56:53.784Z,79.26
2019-03-05T09:58:07.904Z,79.23
2019-03-05T09:59:04.667Z,78.59
2019-03-05T10:00:10.674Z,78.38
2019-03-05T10:01:16.275Z,79.21
2019-03-05T10:02:22.127Z,78.53
2019-03-05T10:03:27.984Z,77.90
2019-03-05T10:04:33.831Z,78.13
2019-03-05T10:05:39.698Z,77.52
2019-03-05T10:06:45.549Z,76.78
2019-03-05T10:07:50.736Z,75.92
2019-03-05T10:08:56.659Z,75.23
2019-03-05T10:10:02.505Z,75.69
2019-03-05T10:11:08.062Z,74.61
2019-03-05T10:12:13.645Z,73.98
2019-03-05T10:13:19.559Z,75.19
2019-03-05T10:14:25.434Z,74.54
2019-03-05T10:15:31.316Z,75.13
2019-03-05T10:16:37.156Z,74.60
2019-03-05T10:17:43.083Z,73.01
2019-03-05T10:18:48.954Z,73.31
2019-03-05T10:19:54.816Z,72.61
2019-03-05T10:21:00.473Z,72.86
2019-03-05T10:22:05.993Z,73.16
2019-03-05T10:23:11.531Z,73.58
2019-03-05T10:24:17.420Z,72.84
2019-03-05T10:25:23.337Z,73.09
2019-03-05T10:26:29.215Z,72.92
2019-03-05T10:27:34.388Z,73.09
2019-03-05T10:28:39.897Z,72.75
2019-03-05T10:29:45.436Z,73.38
2019-03-05T10:30:50.574Z,72.47
2019-03-05T10:31:56.450Z,73.00
2019-03-05T10:33:18.112Z,73.25
2019-03-05T10:34:23.321Z,72.42
2019-03-05T10:35:28.522Z,72.34
2019-03-05T10:36:34.027Z,72.92
2019-03-05T10:37:39.522Z,73.25
2019-03-05T10:38:56.634Z,72.67
2019-03-05T10:39:50.993Z,73.41
2019-03-05T10:40:56.928Z,73.54
2019-03-05T10:42:02.184Z,73.67
2019-03-05T10:43:08.757Z,73.61
2019-03-05T10:44:13.294Z,73.83
2019-03-05T10:45:18.197Z,74.34
2019-03-05T10:46:23.837Z,74.33
2019-03-05T10:47:29.726Z,74.91
2019-03-05T10:48:35.593Z,76.01
2019-03-05T10:49:41.539Z,76.22
2019-03-05T10:50:46.755Z,76.79
2019-03-05T10:51:52.252Z,77.00
2019-03-05T10:52:57.452Z,76.75
2019-03-05T10:54:03.455Z,77.06
2019-03-05T10:55:08.654Z,77.24
2019-03-05T10:56:14.545Z,77.94
2019-03-05T10:57:20.383Z,78.32
2019-03-05T10:58:33.846Z,78.86
2019-03-05T10:59:31.473Z,79.51
2019-03-05T11:00:42.912Z,80.26
2019-03-05T11:01:48.070Z,80.68
2019-03-05T11:02:53.236Z,81.20
2019-03-05T11:03:58.448Z,82.01
2019-03-05T11:05:03.636Z,81.69
2019-03-05T11:06:09.312Z,81.55
2019-03-05T11:07:14.912Z,82.46
2019-03-05T11:08:20.319Z,82.20
2019-03-05T11:09:25.494Z,82.09
2019-03-05T11:10:30.407Z,82.10
2019-03-05T11:11:35.962Z,81.81
2019-03-05T11:12:41.095Z,82.03
2019-03-05T11:13:46.562Z,82.02
2019-03-05T11:14:52.455Z,81.72
2019-03-05T11:15:57.639Z,82.03
2019-03-05T11:17:02.888Z,81.63
2019-03-05T11:18:08.037Z,81.40
2019-03-05T11:19:13.554Z,80.96
2019-03-05T11:20:18.760Z,80.69
2019-03-05T11:21:24.617Z,80.78
2019-03-05T11:22:30.147Z,80.16
2019-03-05T11:23:35.635Z,80.71
2019-03-05T11:24:41.273Z,80.66
2019-03-05T11:25:46.485Z,79.78
2019-03-05T11:26:52.370Z,80.59
2019-03-05T11:27:58.257Z,80.65
2019-03-05T11:29:03.794Z,80.62
2019-03-05T11:30:22.934Z,81.31
2019-03-05T11:31:28.477Z,80.75
2019-03-05T11:32:34.345Z,80.81
2019-03-05T11:33:39.818Z,80.88
2019-03-05T11:34:45.742Z,80.99
2019-03-05T11:35:51.248Z,80.69
2019-03-05T11:36:57.158Z,80.85
2019-03-05T11:38:02.310Z,80.79
2019-03-05T11:39:07.467Z,80.48
2019-03-05T11:40:20.696Z,81.09
2019-03-05T11:41:18.217Z,81.48
2019-03-05T11:42:24.087Z,81.02
2019-03-05T11:43:29.997Z,81.15
2019-03-05T11:44:35.883Z,80.97
2019-03-05T11:45:41.064Z,81.61
2019-03-05T11:46:46.284Z,81.72
2019-03-05T11:47:51.482Z,81.61
2019-03-05T11:48:57.307Z,81.82
2019-03-05T11:50:02.511Z,82.45
2019-03-05T11:51:08.379Z,82.98
2019-03-05T11:52:13.865Z,83.02
2019-03-05T11:53:19.762Z,82.52
2019-03-05T11:54:25.656Z,81.45
2019-03-05T11:55:31.567Z,80.48
2019-03-05T11:56:37.492Z,80.89
2019-03-05T11:57:42.983Z,81.08
2019-03-05T11:58:48.843Z,80.66
2019-03-05T11:59:54.700Z,80.79
2019-03-05T12:01:05.941Z,81.08
2019-03-05T12:02:21.529Z,80.82
2019-03-05T12:03:17.060Z,81.02
2019-03-05T12:04:22.918Z,81.17
2019-03-05T12:05:28.489Z,81.70
2019-03-05T12:06:34.376Z,82.25
2019-03-05T12:07:40.215Z,83.08
2019-03-05T12:08:46.095Z,83.37
2019-03-05T12:09:51.992Z,83.78
2019-03-05T12:10:57.885Z,84.09
2019-03-05T12:12:03.422Z,84.57
2019-03-05T12:13:08.331Z,84.91
2019-03-05T12:14:14.193Z,85.05
2019-03-05T12:15:19.383Z,85.12
2019-03-05T12:16:24.959Z,84.81
2019-03-05T12:17:30.786Z,85.23
2019-03-05T12:18:36.686Z,84.34
2019-03-05T12:19:42.292Z,84.51
2019-03-05T12:20:47.835Z,83.94
2019-03-05T12:21:53.690Z,84.01
2019-03-05T12:23:02.181Z,83.69
2019-03-05T12:24:04.692Z,83.38
2019-03-05T12:25:10.778Z,83.24
2019-03-05T12:26:16.621Z,82.90
2019-03-05T12:27:22.491Z,82.28
2019-03-05T12:28:28.086Z,81.74
2019-03-05T12:29:33.947Z,81.87
2019-03-05T12:30:39.541Z,82.22
2019-03-05T12:31:45.426Z,82.60
2019-03-05T12:32:50.603Z,81.89
2019-03-05T12:33:56.479Z,80.88
2019-03-05T12:35:02.026Z,81.04
2019-03-05T12:36:07.211Z,81.33
2019-03-05T12:37:13.105Z,80.88
2019-03-05T12:38:19.016Z,80.31
2019-03-05T12:39:24.194Z,79.54
2019-03-05T12:40:30.139Z,79.49
2019-03-05T12:41:36.098Z,79.22
2019-03-05T12:42:41.960Z,78.43
2019-03-05T12:43:47.826Z,78.51
2019-03-05T12:44:53.726Z,78.80
2019-03-05T12:45:58.873Z,78.63
2019-03-05T12:47:04.033Z,78.89
2019-03-05T12:48:09.558Z,78.26
2019-03-05T12:49:17.125Z,77.15
2019-03-05T12:50:23.237Z,76.00
2019-03-05T12:51:29.077Z,76.00
2019-03-05T12:52:34.557Z,75.54
2019-03-05T12:53:40.570Z,75.81
2019-03-05T12:54:46.643Z,75.94
2019-03-05T12:55:52.567Z,76.27
2019-03-05T12:56:58.459Z,76.46
2019-03-05T12:58:03.818Z,76.91
2019-03-05T12:59:09.738Z,76.66
2019-03-05T13:00:15.513Z,76.22
2019-03-05T13:01:21.440Z,76.44
2019-03-05T13:02:27.508Z,76.76
2019-03-05T13:03:33.464Z,76.20
2019-03-05T13:04:39.483Z,75.86
2019-03-05T13:05:45.259Z,77.09
2019-03-05T13:06:51.151Z,75.86
2019-03-05T13:07:57.819Z,75.48
2019-03-05T13:09:02.878Z,74.39
2019-03-05T13:10:08.972Z,74.90
2019-03-05T13:11:15.003Z,74.90
2019-03-05T13:12:20.871Z,74.72
2019-03-05T13:13:26.434Z,74.31
2019-03-05T13:14:32.334Z,74.08
2019-03-05T13:15:38.045Z,74.21
2019-03-05T13:16:43.906Z,74.60
2019-03-05T13:17:51.593Z,74.33
2019-03-05T13:18:58.224Z,74.47
2019-03-05T13:20:01.804Z,75.16
2019-03-05T13:21:07.696Z,75.69
2019-03-05T13:22:13.194Z,75.72
2019-03-05T13:23:19.051Z,75.37
2019-03-05T13:24:24.929Z,74.39
2019-03-05T13:25:30.793Z,74.60
2019-03-05T13:26:36.729Z,73.58
2019-03-05T13:27:42.274Z,74.03
2019-03-05T13:28:48.142Z,72.69
2019-03-05T13:29:54.014Z,71.61
2019-03-05T13:31:00.470Z,70.84
2019-03-05T13:32:05.167Z,70.45
2019-03-05T13:33:11.036Z,70.31
2019-03-05T13:34:17.791Z,70.91
2019-03-05T13:35:25.389Z,71.54
2019-03-05T13:36:28.023Z,73.06
2019-03-05T13:37:33.890Z,73.12
2019-03-05T13:38:41.776Z,73.31
2019-03-05T13:39:45.785Z,72.95
2019-03-05T13:40:51.643Z,72.34
2019-03-05T13:41:56.934Z,72.49
2019-03-05T13:43:02.099Z,72.62
2019-03-05T13:44:07.317Z,72.94
2019-03-05T13:45:12.690Z,72.69
2019-03-05T13:46:18.234Z,72.95
2019-03-05T13:47:24.083Z,72.95
2019-03-05T13:48:43.579Z,73.23
2019-03-05T13:49:58.803Z,72.92
2019-03-05T13:52:41.268Z,72.53
2019-03-05T13:53:47.338Z,72.75
2019-03-05T13:54:57.162Z,72.10
2019-03-05T13:58:06.350Z,72.11
2019-03-05T13:59:23.137Z,71.98
2019-03-05T14:00:29.185Z,71.81
2019-03-05T14:01:35.123Z,71.34
2019-03-05T14:02:53.139Z,69.37
2019-03-05T14:03:58.248Z,68.11
2019-03-05T14:05:10.673Z,66.95
2019-03-05T14:06:21.953Z,66.94
2019-03-05T14:07:48.588Z,67.64
2019-03-05T14:09:12.580Z,68.15
2019-03-05T14:10:18.166Z,68.59
2019-03-05T14:11:23.100Z,68.71
2019-03-05T14:12:28.349Z,70.00
2019-03-05T14:13:33.886Z,71.77
2019-03-05T14:14:39.767Z,73.22
2019-03-05T14:15:45.616Z,74.67
2019-03-05T14:16:51.045Z,75.48
2019-03-05T14:17:56.735Z,76.90
2019-03-05T14:19:02.803Z,77.36
2019-03-05T14:20:10.998Z,77.94
2019-03-05T14:21:16.910Z,78.71
2019-03-05T14:22:22.626Z,78.80
2019-03-05T14:23:28.498Z,77.79
2019-03-05T14:24:34.458Z,77.81
2019-03-05T14:25:39.610Z,77.44
2019-03-05T14:26:45.677Z,77.32
2019-03-05T14:27:51.593Z,74.59
2019-03-05T14:28:57.085Z,75.46
2019-03-05T14:30:03.216Z,73.35
2019-03-05T14:31:08.488Z,73.33
2019-03-05T14:32:13.699Z,74.13
2019-03-05T14:33:19.595Z,73.48
2019-03-05T14:34:25.353Z,72.81
2019-03-05T14:35:30.928Z,72.10
2019-03-05T14:36:36.938Z,71.65
2019-03-05T14:37:42.475Z,70.41
2019-03-05T14:38:48.211Z,70.85
2019-03-05T14:39:54.277Z,71.41